createdAt,value
2017-11-10T00:02:30.117Z,97.20
2017-11-10T00:05:32.103Z,97.20
2017-11-10T00:08:34.035Z,97.20
2017-11-10T00:11:35.957Z,97.10
2017-11-10T00:14:37.882Z,97.10
2017-11-10T00:17:39.802Z,97.10
2017-11-10T00:20:41.823Z,97.10
2017-11-10T00:23:44.589Z,97.40
2017-11-10T00:26:46.502Z,97.10
2017-11-10T00:29:49.239Z,97.00
2017-11-10T00:32:51.267Z,97.00
2017-11-10T00:35:53.871Z,97.10
2017-11-10T00:38:55.925Z,97.10
2017-11-10T00:41:57.826Z,97.40
2017-11-10T00:44:59.829Z,97.10
2017-11-10T00:48:01.791Z,97.10
2017-11-10T00:51:03.774Z,97.10
2017-11-10T00:54:05.757Z,97.00
2017-11-10T00:57:07.738Z,97.10
2017-11-10T01:00:09.678Z,97.10
2017-11-10T01:03:11.595Z,97.10
2017-11-10T01:06:13.726Z,97.10
2017-11-10T01:09:16.517Z,97.20
2017-11-10T01:12:19.215Z,97.00
2017-11-10T01:15:21.194Z,97.10
2017-11-10T01:18:23.170Z,97.10
2017-11-10T01:21:26.715Z,97.10
2017-11-10T01:24:29.403Z,97.00
2017-11-10T01:27:31.364Z,97.00
2017-11-10T01:30:33.342Z,96.90
2017-11-10T01:33:35.284Z,97.00
2017-11-10T01:36:37.203Z,96.90
2017-11-10T01:39:39.145Z,96.90
2017-11-10T01:42:41.042Z,96.90
2017-11-10T01:45:43.090Z,96.80
2017-11-10T01:48:45.991Z,96.80
2017-11-10T01:51:48.782Z,96.70
2017-11-10T01:54:50.706Z,96.70
2017-11-10T01:57:52.662Z,96.80
2017-11-10T02:00:55.359Z,96.70
2017-11-10T02:03:58.829Z,96.70
2017-11-10T02:07:00.736Z,96.70
2017-11-10T02:10:02.660Z,96.60
2017-11-10T02:13:04.601Z,96.50
2017-11-10T02:16:06.571Z,96.50
2017-11-10T02:19:08.497Z,96.50
2017-11-10T02:22:11.198Z,96.40
2017-11-10T02:25:13.255Z,96.40
2017-11-10T02:28:16.038Z,96.40
2017-11-10T02:31:17.975Z,96.40
2017-11-10T02:34:19.899Z,96.40
2017-11-10T02:37:21.825Z,96.40
2017-11-10T02:40:24.512Z,96.30
2017-11-10T02:43:26.478Z,96.30
2017-11-10T02:46:28.447Z,96.30
2017-11-10T02:49:30.373Z,96.30
2017-11-10T02:52:33.362Z,96.20
2017-11-10T02:55:35.342Z,96.30
2017-11-10T02:58:38.059Z,96.10
2017-11-10T03:01:40.747Z,96.20
2017-11-10T03:04:43.437Z,96.60
2017-11-10T03:07:45.398Z,96.20
2017-11-10T03:10:47.319Z,96.30
2017-11-10T03:13:50.007Z,96.40
2017-11-10T03:16:52.703Z,96.50
2017-11-10T03:19:54.688Z,96.40
2017-11-10T03:22:56.628Z,96.50
2017-11-10T03:25:58.631Z,96.40
2017-11-10T03:29:00.552Z,96.40
2017-11-10T03:32:03.323Z,96.40
2017-11-10T03:35:05.279Z,96.40
2017-11-10T03:38:07.176Z,96.50
2017-11-10T03:41:09.109Z,96.60
2017-11-10T03:44:11.007Z,96.60
2017-11-10T03:47:13.051Z,96.60
2017-11-10T03:50:15.817Z,96.80
2017-11-10T03:53:17.758Z,96.70
2017-11-10T03:56:19.793Z,96.60
2017-11-10T03:59:21.789Z,96.50
2017-11-10T04:02:23.719Z,96.50
2017-11-10T04:05:25.672Z,96.70
2017-11-10T04:08:28.359Z,96.60
2017-11-10T04:11:30.345Z,96.50
2017-11-10T04:14:32.309Z,96.60
2017-11-10T04:17:34.250Z,96.70
2017-11-10T04:20:36.170Z,96.50
2017-11-10T04:23:38.082Z,96.50
2017-11-10T04:26:40.741Z,96.40
2017-11-10T04:29:42.726Z,96.40
2017-11-10T04:32:44.734Z,96.40
2017-11-10T04:35:46.697Z,96.40
2017-11-10T04:38:48.728Z,96.50
2017-11-10T04:41:50.685Z,96.50
2017-11-10T04:44:52.600Z,96.50
2017-11-10T04:47:54.516Z,96.50
2017-11-10T04:50:56.412Z,96.60
2017-11-10T04:53:58.349Z,96.50
2017-11-10T04:57:00.338Z,96.50
2017-11-10T05:00:02.285Z,96.60
2017-11-10T05:03:04.964Z,96.60
2017-11-10T05:06:06.936Z,96.60
2017-11-10T05:09:08.827Z,96.70
2017-11-10T05:12:11.104Z,96.60
2017-11-10T05:15:13.114Z,96.60
2017-11-10T05:18:15.127Z,96.60
2017-11-10T05:21:17.103Z,96.60
2017-11-10T05:24:19.799Z,96.60
2017-11-10T05:27:22.496Z,96.60
2017-11-10T05:30:24.742Z,96.60
2017-11-10T05:33:26.666Z,96.60
2017-11-10T05:36:29.471Z,96.80
2017-11-10T05:39:32.167Z,96.70
2017-11-10T05:42:34.925Z,96.90
2017-11-10T05:45:36.838Z,96.90
2017-11-10T05:48:38.755Z,96.90
2017-11-10T05:51:40.651Z,96.90
2017-11-10T05:54:42.677Z,96.90
2017-11-10T05:57:44.607Z,97.10
2017-11-10T06:00:46.954Z,97.20
2017-11-10T06:03:48.886Z,97.50
2017-11-10T06:06:51.608Z,97.30
2017-11-10T06:09:53.523Z,97.20
2017-11-10T06:12:55.810Z,97.30
2017-11-10T06:15:57.810Z,97.30
2017-11-10T06:19:00.916Z,97.40
2017-11-10T06:22:03.623Z,97.40
2017-11-10T06:25:06.383Z,97.50
2017-11-10T06:28:08.299Z,97.40
2017-11-10T06:31:11.251Z,97.40
2017-11-10T06:34:13.286Z,97.40
2017-11-10T06:37:15.972Z,97.50
2017-11-10T06:40:17.866Z,97.50
2017-11-10T06:43:20.571Z,97.40
2017-11-10T06:46:23.231Z,97.40
2017-11-10T06:49:25.519Z,97.40
2017-11-10T06:52:27.451Z,97.30
2017-11-10T06:55:30.233Z,97.30
2017-11-10T06:58:32.936Z,97.30
2017-11-10T07:01:35.618Z,97.30
2017-11-10T07:04:37.583Z,97.20
2017-11-10T07:07:39.579Z,97.20
2017-11-10T07:10:41.559Z,97.10
2017-11-10T07:13:43.503Z,97.00
2017-11-10T07:16:45.412Z,97.00
2017-11-10T07:19:47.334Z,96.90
2017-11-10T07:22:50.020Z,96.90
2017-11-10T07:25:52.005Z,96.90
2017-11-10T07:28:54.035Z,97.00
2017-11-10T07:31:56.461Z,96.60
2017-11-10T07:34:58.385Z,96.60
2017-11-10T07:38:01.163Z,96.60
2017-11-10T07:41:03.154Z,96.60
2017-11-10T07:44:06.303Z,96.50
2017-11-10T07:47:08.196Z,96.50
2017-11-10T07:50:10.244Z,96.50
2017-11-10T07:53:12.935Z,96.50
2017-11-10T07:56:15.643Z,96.60
2017-11-10T07:59:18.428Z,96.70
2017-11-10T08:02:21.219Z,97.10
2017-11-10T08:05:23.117Z,96.70
2017-11-10T08:08:25.043Z,96.70
2017-11-10T08:11:26.956Z,96.90
2017-11-10T08:14:29.234Z,96.80
2017-11-10T08:17:31.259Z,96.90
2017-11-10T08:20:34.363Z,97.00
2017-11-10T08:23:36.282Z,97.00
2017-11-10T08:26:38.210Z,97.10
2017-11-10T08:29:40.898Z,96.90
2017-11-10T08:32:43.150Z,97.00
2017-11-10T08:35:45.059Z,97.00
2017-11-10T08:38:47.898Z,97.00
2017-11-10T08:41:49.881Z,97.10
2017-11-10T08:44:52.172Z,97.10
2017-11-10T08:47:54.135Z,97.20
2017-11-10T08:50:56.076Z,97.10
2017-11-10T08:53:57.975Z,97.10
2017-11-10T08:56:59.899Z,97.10
2017-11-10T09:00:01.894Z,96.70
2017-11-10T09:03:04.688Z,96.50
2017-11-10T09:06:06.651Z,96.50
2017-11-10T09:09:08.591Z,96.00
2017-11-10T09:12:10.537Z,96.20
2017-11-10T09:15:12.496Z,96.30
2017-11-10T09:18:14.511Z,96.10
2017-11-10T09:21:17.832Z,96.10
2017-11-10T09:24:20.596Z,95.90
2017-11-10T09:27:22.518Z,95.90
2017-11-10T09:30:25.203Z,95.40
2017-11-10T09:33:27.122Z,95.30
2017-11-10T09:36:29.034Z,95.30
2017-11-10T09:39:30.968Z,95.10
2017-11-10T09:42:32.904Z,95.00
2017-11-10T09:45:34.822Z,95.10
2017-11-10T09:48:37.502Z,95.10
2017-11-10T09:51:39.500Z,95.10
2017-11-10T09:54:42.295Z,95.10
2017-11-10T09:57:57.000Z,95.40
2017-11-10T10:00:59.782Z,95.60
2017-11-10T10:04:01.744Z,95.60
2017-11-10T10:07:03.659Z,95.40
2017-11-10T10:10:05.585Z,95.40
2017-11-10T10:13:07.524Z,95.30
2017-11-10T10:16:11.049Z,94.60
2017-11-10T10:19:13.818Z,93.90
2017-11-10T10:22:15.836Z,93.90
2017-11-10T10:25:18.542Z,93.10
2017-11-10T10:28:21.294Z,92.70
2017-11-10T10:31:23.202Z,92.70
2017-11-10T10:34:25.952Z,91.70
2017-11-10T10:37:27.867Z,91.70
2017-11-10T10:40:29.876Z,91.50
2017-11-10T10:43:32.675Z,90.90
2017-11-10T10:46:34.598Z,90.90
2017-11-10T10:49:36.511Z,91.30
2017-11-10T10:52:38.522Z,90.80
2017-11-10T10:55:41.316Z,90.80
2017-11-10T10:58:43.244Z,90.50
2017-11-10T11:01:45.159Z,90.10
2017-11-10T11:04:47.080Z,90.10
2017-11-10T11:07:49.868Z,89.70
2017-11-10T11:10:53.545Z,89.70
2017-11-10T11:13:55.459Z,89.20
2017-11-10T11:16:57.406Z,87.90
2017-11-10T11:19:59.501Z,87.20
2017-11-10T11:23:01.419Z,85.80
2017-11-10T11:26:04.318Z,83.90
2017-11-10T11:29:06.354Z,81.80
2017-11-10T11:32:08.427Z,82.70
2017-11-10T11:35:10.501Z,83.60
2017-11-10T11:38:13.284Z,84.70
2017-11-10T11:41:15.270Z,84.70
2017-11-10T11:44:17.202Z,86.20
2017-11-10T11:47:19.229Z,88.40
2017-11-10T11:50:21.170Z,88.80
2017-11-10T11:53:23.178Z,89.20
2017-11-10T11:56:25.188Z,89.80
2017-11-10T11:59:27.882Z,90.70
2017-11-10T12:02:29.807Z,90.80
2017-11-10T12:05:32.627Z,90.60
2017-11-10T12:08:34.538Z,90.50
2017-11-10T12:11:36.527Z,90.20
2017-11-10T12:14:38.486Z,90.00
2017-11-10T12:17:40.414Z,90.20
2017-11-10T12:20:43.075Z,88.50
2017-11-10T12:23:45.001Z,88.40
2017-11-10T12:26:46.944Z,87.40
2017-11-10T12:29:48.883Z,87.50
2017-11-10T12:32:50.896Z,86.90
2017-11-10T12:35:52.843Z,87.70
2017-11-10T12:38:54.746Z,87.50
2017-11-10T12:41:56.702Z,87.80
2017-11-10T12:44:58.640Z,88.40
2017-11-10T12:48:01.376Z,88.70
2017-11-10T12:51:04.164Z,89.20
2017-11-10T12:54:06.883Z,90.20
2017-11-10T12:57:08.811Z,90.10
2017-11-10T13:00:10.968Z,90.40
2017-11-10T13:03:13.020Z,90.00
2017-11-10T13:06:15.755Z,89.90
2017-11-10T13:09:18.365Z,89.80
2017-11-10T13:12:20.311Z,89.80
2017-11-10T13:15:22.255Z,90.00
2017-11-10T13:18:24.336Z,90.00
2017-11-10T13:21:26.450Z,89.80
2017-11-10T13:24:29.474Z,91.40
2017-11-10T13:27:32.250Z,87.10
2017-11-10T13:30:34.171Z,87.10
2017-11-10T13:33:36.231Z,88.90
2017-11-10T13:36:38.908Z,92.70
2017-11-10T13:39:41.604Z,93.90
2017-11-10T13:42:44.442Z,94.60
2017-11-10T13:45:47.203Z,95.10
2017-11-10T13:48:49.127Z,95.10
2017-11-10T13:51:51.023Z,95.60
2017-11-10T13:54:53.272Z,95.80
2017-11-10T13:57:58.268Z,96.00
2017-11-10T14:01:00.493Z,96.00
2017-11-10T14:04:02.507Z,95.90
2017-11-10T14:07:05.293Z,95.50
2017-11-10T14:10:07.170Z,95.50
2017-11-10T14:13:09.883Z,95.40
2017-11-10T14:16:12.307Z,95.40
2017-11-10T14:19:14.247Z,95.40
2017-11-10T14:22:16.353Z,95.30
2017-11-10T14:25:19.036Z,94.90
2017-11-10T14:28:21.003Z,94.90
2017-11-10T14:31:23.610Z,94.90
2017-11-10T14:34:25.610Z,94.60
2017-11-10T14:37:28.480Z,94.10
2017-11-10T14:40:30.486Z,94.10
2017-11-10T14:43:33.269Z,94.10
2017-11-10T14:46:35.155Z,94.10
2017-11-10T14:49:37.096Z,94.10
2017-11-10T14:52:39.014Z,94.40
2017-11-10T14:55:40.999Z,94.50
2017-11-10T14:58:42.888Z,94.60
2017-11-10T15:01:44.858Z,94.70
2017-11-10T15:04:46.851Z,94.60
2017-11-10T15:07:48.778Z,94.70
2017-11-10T15:10:50.679Z,94.80
2017-11-10T15:13:52.615Z,94.80
2017-11-10T15:16:54.655Z,95.00
2017-11-10T15:19:56.562Z,95.00
2017-11-10T15:22:58.480Z,95.10
2017-11-10T15:26:01.150Z,95.10
2017-11-10T15:29:03.864Z,95.10
2017-11-10T15:32:05.825Z,95.10
2017-11-10T15:35:07.802Z,95.30
2017-11-10T15:38:09.786Z,95.30
2017-11-10T15:41:12.013Z,95.30
2017-11-10T15:44:15.698Z,95.40
2017-11-10T15:47:17.688Z,95.40
2017-11-10T15:50:20.067Z,95.50
2017-11-10T15:53:22.094Z,95.60
2017-11-10T15:56:24.779Z,95.70
2017-11-10T15:59:26.736Z,95.70
2017-11-10T16:02:28.724Z,95.60
2017-11-10T16:05:30.845Z,95.50
2017-11-10T16:08:33.554Z,93.90
2017-11-10T16:11:36.261Z,92.70
2017-11-10T16:14:38.162Z,92.70
2017-11-10T16:17:40.174Z,92.40
2017-11-10T16:20:42.066Z,92.00
2017-11-10T16:23:44.104Z,91.50
2017-11-10T16:26:45.996Z,91.40
2017-11-10T16:29:48.139Z,91.40
2017-11-10T16:32:50.112Z,91.50
2017-11-10T16:35:53.068Z,91.90
2017-11-10T16:38:55.001Z,91.90
2017-11-10T16:41:57.798Z,92.60
2017-11-10T16:44:59.806Z,92.60
2017-11-10T16:48:02.483Z,93.30
2017-11-10T16:51:04.499Z,93.30
2017-11-10T16:54:07.250Z,93.90
2017-11-10T16:57:09.182Z,93.90
2017-11-10T17:00:11.112Z,93.90
2017-11-10T17:03:13.088Z,93.90
2017-11-10T17:06:15.080Z,94.00
2017-11-10T17:09:16.995Z,94.00
2017-11-10T17:12:19.767Z,92.30
2017-11-10T17:15:21.787Z,92.30
2017-11-10T17:18:24.539Z,91.00
2017-11-10T17:21:26.631Z,91.00
2017-11-10T17:24:28.574Z,91.20
2017-11-10T17:27:30.532Z,91.10
2017-11-10T17:30:33.320Z,90.20
2017-11-10T17:33:35.254Z,90.20
2017-11-10T17:36:37.179Z,90.40
2017-11-10T17:39:39.161Z,90.80
2017-11-10T17:42:42.063Z,91.40
2017-11-10T17:45:43.970Z,91.40
2017-11-10T17:48:46.670Z,91.60
2017-11-10T17:51:49.379Z,92.20
2017-11-10T17:54:51.307Z,92.20
2017-11-10T17:57:53.320Z,92.80
2017-11-10T18:00:55.215Z,92.80
2017-11-10T18:03:57.899Z,93.10
2017-11-10T18:07:00.559Z,93.70
2017-11-10T18:10:02.487Z,93.50
2017-11-10T18:13:05.172Z,93.60
2017-11-10T18:16:08.595Z,94.00
2017-11-10T18:19:10.560Z,94.00
2017-11-10T18:22:12.514Z,94.40
2017-11-10T18:25:14.533Z,94.80
2017-11-10T18:28:17.235Z,94.80
2017-11-10T18:31:19.162Z,94.90
2017-11-10T18:34:21.066Z,94.80
2017-11-10T18:37:23.070Z,94.80
2017-11-10T18:40:25.549Z,94.90
2017-11-10T18:43:27.566Z,95.00
2017-11-10T18:46:29.498Z,95.10
2017-11-10T18:49:31.467Z,95.30
2017-11-10T18:52:33.405Z,95.50
2017-11-10T18:55:36.243Z,95.60
2017-11-10T18:58:38.998Z,95.80
2017-11-10T19:01:40.920Z,95.80
2017-11-10T19:04:42.853Z,95.90
2017-11-10T19:07:44.802Z,96.10
2017-11-10T19:10:46.729Z,96.10
2017-11-10T19:13:48.639Z,96.00
2017-11-10T19:16:51.334Z,96.00
2017-11-10T19:19:53.243Z,95.90
2017-11-10T19:22:55.200Z,95.80
2017-11-10T19:25:57.186Z,95.70
2017-11-10T19:28:59.894Z,95.20
2017-11-10T19:32:03.275Z,94.80
2017-11-10T19:35:05.271Z,94.90
2017-11-10T19:38:08.098Z,94.60
2017-11-10T19:41:10.883Z,94.40
2017-11-10T19:44:12.787Z,94.40
2017-11-10T19:47:15.455Z,94.30
2017-11-10T19:50:17.348Z,94.30
2017-11-10T19:53:19.258Z,94.30
2017-11-10T19:56:22.044Z,94.40
2017-11-10T19:59:23.974Z,94.40
2017-11-10T20:02:25.892Z,94.40
2017-11-10T20:05:27.806Z,94.20
2017-11-10T20:08:30.489Z,94.40
2017-11-10T20:11:33.256Z,94.40
2017-11-10T20:14:35.171Z,94.40
2017-11-10T20:17:37.145Z,94.40
2017-11-10T20:20:39.116Z,94.50
2017-11-10T20:23:41.035Z,94.50
2017-11-10T20:26:43.808Z,94.60
2017-11-10T20:29:45.711Z,94.60
2017-11-10T20:32:47.699Z,94.70
2017-11-10T20:35:49.622Z,94.90
2017-11-10T20:38:51.639Z,95.10
2017-11-10T20:41:53.578Z,94.90
2017-11-10T20:44:55.523Z,95.00
2017-11-10T20:47:57.486Z,95.00
2017-11-10T20:50:59.417Z,95.20
2017-11-10T20:54:02.109Z,95.30
2017-11-10T20:57:05.576Z,95.40
2017-11-10T21:00:07.475Z,95.40
2017-11-10T21:03:10.315Z,95.20
2017-11-10T21:06:13.696Z,95.00
2017-11-10T21:09:15.653Z,95.00
2017-11-10T21:12:17.562Z,94.90
2017-11-10T21:15:20.327Z,94.90
2017-11-10T21:18:22.403Z,94.90
2017-11-10T21:21:25.092Z,95.00
2017-11-10T21:24:27.856Z,95.00
2017-11-10T21:27:29.871Z,95.00
2017-11-10T21:30:32.547Z,94.70
2017-11-10T21:33:34.879Z,94.70
2017-11-10T21:36:37.627Z,94.40
2017-11-10T21:39:39.589Z,94.40
2017-11-10T21:42:41.525Z,94.40
2017-11-10T21:45:43.524Z,94.30
2017-11-10T21:48:46.322Z,94.50
2017-11-10T21:51:48.262Z,94.20
2017-11-10T21:54:50.299Z,94.20
2017-11-10T21:57:52.315Z,94.10
2017-11-10T22:00:54.292Z,94.10
2017-11-10T22:03:56.240Z,93.90
2017-11-10T22:06:58.530Z,93.80
2017-11-10T22:10:00.530Z,93.70
2017-11-10T22:13:03.248Z,93.80
2017-11-10T22:16:06.059Z,93.80
2017-11-10T22:19:08.943Z,93.80
2017-11-10T22:22:12.324Z,93.70
2017-11-10T22:25:14.234Z,93.60
2017-11-10T22:28:16.191Z,93.60
2017-11-10T22:31:18.211Z,93.50
2017-11-10T22:34:21.893Z,93.60
2017-11-10T22:37:23.827Z,93.60
2017-11-10T22:40:26.579Z,93.80
2017-11-10T22:43:28.800Z,93.70
2017-11-10T22:46:31.458Z,94.50
2017-11-10T22:49:33.466Z,94.20
2017-11-10T22:52:35.437Z,94.40
2017-11-10T22:55:37.354Z,94.60
2017-11-10T22:58:40.992Z,94.80
2017-11-10T23:01:43.766Z,94.80
2017-11-10T23:04:45.681Z,94.80
2017-11-10T23:07:47.642Z,95.00
2017-11-10T23:10:50.289Z,95.30
2017-11-10T23:13:52.944Z,95.30
2017-11-10T23:16:55.718Z,95.50
2017-11-10T23:19:57.709Z,95.50
2017-11-10T23:22:59.611Z,95.70
2017-11-10T23:26:02.374Z,95.60
2017-11-10T23:29:04.599Z,95.60
2017-11-10T23:32:07.371Z,95.50
2017-11-10T23:35:09.257Z,95.50
2017-11-10T23:38:11.190Z,95.40
2017-11-10T23:41:13.132Z,95.30
2017-11-10T23:44:15.197Z,95.10
2017-11-10T23:47:17.205Z,95.00
2017-11-10T23:50:19.260Z,94.90
2017-11-10T23:53:21.268Z,94.80
2017-11-10T23:56:23.249Z,94.90
2017-11-10T23:59:25.924Z,95.00
